Time;durP1;ratioP1;P1;durP2;ratioP2;P2;SDS_P1;SDS_P2;PMS_P1;PMS_P2;Temp;Humidity;BMP_temperature;BMP_pressure;BME280_temperature;BME280_humidity;BME280_pressure;Samples;Min_cycle;Max_cycle;Signal;HPM_P1;HPM_P2
2023/07/22 00:02:07;;;;;;;4.07;2.77;;;;;;;15.61;99.17;97443.56;6227859;28;20235;-56
2023/07/22 00:05:12;;;;;;;3.80;2.77;;;;;;;15.59;99.50;97435.00;6214969;28;20310;-56
2023/07/22 00:08:14;;;;;;;2.60;2.30;;;;;;;15.54;100.00;97444.97;6217601;28;20227;-56
2023/07/22 00:11:17;;;;;;;4.27;2.43;;;;;;;15.44;100.00;97443.97;6218699;28;20317;-56
2023/07/22 00:14:19;;;;;;;2.90;2.57;;;;;;;15.72;96.70;97447.03;6219670;28;20306;-56
2023/07/22 00:17:22;;;;;;;3.53;1.97;;;;;;;16.48;84.37;97437.44;6215763;28;20236;-55
2023/07/22 00:20:25;;;;;;;6.83;2.70;;;;;;;16.50;88.18;97448.72;6218853;28;20227;-55
2023/07/22 00:23:28;;;;;;;6.20;2.93;;;;;;;16.31;91.73;97445.19;6219373;28;20227;-56
2023/07/22 00:26:30;;;;;;;3.40;2.43;;;;;;;15.99;93.66;97427.72;6218458;28;20239;-56
2023/07/22 00:29:33;;;;;;;4.10;2.57;;;;;;;15.97;94.34;97449.50;6231762;28;20330;-56
2023/07/22 00:32:37;;;;;;;4.20;3.03;;;;;;;15.91;95.61;97450.63;6224611;28;20606;-55
2023/07/22 00:35:39;;;;;;;3.33;2.73;;;;;;;15.81;95.30;97456.09;6235877;28;20242;-56
2023/07/22 00:38:42;;;;;;;6.63;5.90;;;;;;;15.84;93.33;97455.53;6214466;28;20721;-56
2023/07/22 00:41:45;;;;;;;7.93;4.07;;;;;;;16.52;85.31;97458.09;6216599;28;20228;-56
2023/07/22 00:44:47;;;;;;;7.47;5.40;;;;;;;17.19;78.55;97451.94;6219613;28;20243;-55
2023/07/22 00:47:50;;;;;;;7.87;4.13;;;;;;;17.00;81.61;97455.44;6219744;28;20335;-56
2023/07/22 00:50:53;;;;;;;3.30;3.00;;;;;;;17.08;81.36;97472.81;6234726;28;20362;-56
2023/07/22 00:53:56;;;;;;;4.10;2.77;;;;;;;17.15;77.78;97467.91;6223601;28;20235;-55
2023/07/22 00:56:59;;;;;;;6.07;3.97;;;;;;;17.19;77.89;97477.00;6234690;28;20228;-56
2023/07/22 01:00:02;;;;;;;10.53;6.07;;;;;;;17.30;77.06;97474.19;6229147;28;20223;-51
2023/07/22 01:03:07;;;;;;;9.10;5.23;;;;;;;17.19;78.61;97465.41;6218854;28;20698;-55
2023/07/22 01:06:10;;;;;;;6.03;4.03;;;;;;;17.14;79.33;97470.84;6219679;28;20975;-56
2023/07/22 01:09:14;;;;;;;4.00;2.53;;;;;;;17.23;75.71;97491.47;6214921;28;20294;-55
2023/07/22 01:12:16;;;;;;;4.60;2.90;;;;;;;17.42;75.05;97488.00;6221700;28;20216;-56
2023/07/22 01:15:19;;;;;;;3.10;2.30;;;;;;;17.33;76.40;97504.00;6222905;28;20228;-55
2023/07/22 01:18:22;;;;;;;5.93;2.70;;;;;;;17.20;76.77;97507.41;6220821;28;20223;-54
2023/07/22 01:21:24;;;;;;;4.17;2.70;;;;;;;16.84;81.26;97497.06;6217404;28;20223;-55
2023/07/22 01:24:29;;;;;;;2.90;2.40;;;;;;;16.58;83.17;97493.00;6218989;28;20231;-55
2023/07/22 01:27:31;;;;;;;5.33;2.63;;;;;;;16.59;84.06;97524.19;6216803;28;20235;-55
2023/07/22 01:30:34;;;;;;;3.50;2.37;;;;;;;16.47;86.23;97521.91;6218060;28;20773;-55
2023/07/22 01:33:37;;;;;;;3.30;2.80;;;;;;;16.41;84.80;97539.16;6222225;28;20606;-55
2023/07/22 01:36:40;;;;;;;2.60;2.40;;;;;;;16.54;83.00;97541.19;6210849;28;20227;-55
2023/07/22 01:39:43;;;;;;;6.57;2.37;;;;;;;16.68;81.55;97547.50;6219157;28;20361;-55
2023/07/22 01:42:45;;;;;;;2.23;2.03;;;;;;;16.71;82.85;97557.72;6214978;28;20267;-56
2023/07/22 01:45:47;;;;;;;2.70;2.30;;;;;;;16.80;81.19;97551.72;6214781;28;20239;-56
2023/07/22 01:48:50;;;;;;;4.20;2.73;;;;;;;17.28;74.46;97558.69;6216717;28;20224;-56
2023/07/22 01:51:52;;;;;;;3.77;2.80;;;;;;;17.39;74.42;97563.97;6217276;28;20777;-55
2023/07/22 01:54:54;;;;;;;3.73;2.70;;;;;;;17.48;74.58;97568.41;6216607;28;20241;-56
2023/07/22 01:57:57;;;;;;;5.00;2.57;;;;;;;17.49;74.02;97570.03;6217904;28;20961;-56
2023/07/22 02:01:00;;;;;;;3.13;2.53;;;;;;;17.25;74.39;97553.13;6214805;28;20236;-56
2023/07/22 02:04:02;;;;;;;11.60;3.10;;;;;;;17.38;75.75;97584.72;6216909;28;20651;-55
2023/07/22 02:07:05;;;;;;;6.27;2.80;;;;;;;17.46;74.45;97569.81;6215909;28;20224;-55
2023/07/22 02:10:09;;;;;;;5.70;2.63;;;;;;;17.37;74.87;97582.31;6217797;28;20235;-55
2023/07/22 02:13:11;;;;;;;3.50;2.83;;;;;;;17.29;74.54;97567.59;6217784;28;20252;-55
2023/07/22 02:16:14;;;;;;;3.27;2.73;;;;;;;17.31;75.68;97583.47;6221826;28;20367;-56
2023/07/22 02:19:16;;;;;;;6.53;3.00;;;;;;;17.39;74.39;97591.72;6214021;28;20236;-55
2023/07/22 02:22:18;;;;;;;3.80;2.63;;;;;;;17.28;75.79;97596.41;6231818;28;20231;-55
2023/07/22 02:25:21;;;;;;;2.97;2.37;;;;;;;17.13;78.05;97599.25;6215377;28;20242;-56
2023/07/22 02:28:24;;;;;;;3.13;2.47;;;;;;;16.95;79.64;97602.72;6211328;28;20215;-56
2023/07/22 02:31:26;;;;;;;4.93;2.93;;;;;;;16.93;78.41;97607.56;6219497;28;20394;-56
2023/07/22 02:34:29;;;;;;;5.37;2.93;;;;;;;16.91;79.84;97602.47;6218606;28;20231;-56
2023/07/22 02:37:31;;;;;;;4.60;2.53;;;;;;;16.90;80.33;97605.44;6217393;28;20228;-56
2023/07/22 02:40:37;;;;;;;3.27;2.73;;;;;;;16.79;81.88;97607.41;6217831;28;20242;-56
2023/07/22 02:43:40;;;;;;;3.13;2.30;;;;;;;16.66;83.48;97619.63;6212395;28;20271;-56
2023/07/22 02:46:42;;;;;;;4.97;2.50;;;;;;;16.55;83.99;97619.97;6215670;28;20231;-55
2023/07/22 02:49:46;;;;;;;3.10;2.80;;;;;;;16.58;81.64;97617.53;6216464;28;20314;-55
2023/07/22 02:52:50;;;;;;;3.17;2.87;;;;;;;16.51;82.63;97615.16;6216573;28;20276;-56
2023/07/22 02:55:53;;;;;;;3.00;2.70;;;;;;;16.50;83.72;97631.56;6216527;28;20310;-56
2023/07/22 02:58:55;;;;;;;2.87;2.63;;;;;;;16.35;84.59;97616.34;6218148;28;20227;-55
2023/07/22 03:01:57;;;;;;;4.50;2.70;;;;;;;16.37;85.37;97627.66;6212167;28;20236;-55
2023/07/22 03:05:00;;;;;;;2.90;2.50;;;;;;;16.35;84.55;97624.41;6215366;28;20223;-56
2023/07/22 03:08:02;;;;;;;2.73;2.43;;;;;;;16.34;84.59;97630.88;6216642;28;20250;-56
2023/07/22 03:11:05;;;;;;;2.80;2.50;;;;;;;16.26;84.80;97623.44;6210772;28;20323;-56
2023/07/22 03:14:07;;;;;;;4.27;2.60;;;;;;;16.33;85.16;97626.59;6216510;28;20254;-55
2023/07/22 03:17:09;;;;;;;3.93;2.60;;;;;;;16.33;84.88;97629.28;6217612;28;20242;-55
2023/07/22 03:20:14;;;;;;;3.87;2.27;;;;;;;16.27;85.06;97633.09;6215414;28;20701;-55
2023/07/22 03:23:17;;;;;;;2.83;2.43;;;;;;;16.21;85.42;97643.09;6218975;28;20223;-56
2023/07/22 03:26:19;;;;;;;3.47;2.80;;;;;;;16.17;85.02;97636.66;6212425;28;20267;-56
2023/07/22 03:29:24;;;;;;;2.60;2.40;;;;;;;16.12;85.54;97634.00;6213534;28;20239;-56
2023/07/22 03:32:26;;;;;;;2.77;2.23;;;;;;;16.06;85.39;97634.28;6213248;28;20231;-56
2023/07/22 03:35:28;;;;;;;3.30;2.57;;;;;;;15.97;85.75;97631.41;6218837;28;20334;-56
2023/07/22 03:38:31;;;;;;;3.23;2.40;;;;;;;16.04;83.20;97631.09;6210336;28;20228;-55
2023/07/22 03:41:33;;;;;;;3.30;2.60;;;;;;;16.02;84.94;97638.63;6219018;28;20232;-55
2023/07/22 03:44:36;;;;;;;2.40;2.20;;;;;;;16.08;83.12;97641.00;6211665;28;20227;-55
2023/07/22 03:47:39;;;;;;;2.80;2.50;;;;;;;15.96;84.03;97632.50;6214266;28;20722;-55
2023/07/22 03:50:42;;;;;;;2.57;2.17;;;;;;;15.90;85.19;97630.91;6215286;28;20311;-56
2023/07/22 03:53:44;;;;;;;3.90;2.23;;;;;;;15.82;84.72;97639.56;6215141;28;20233;-56
2023/07/22 03:56:46;;;;;;;3.00;2.10;;;;;;;15.83;85.88;97633.09;6220191;28;20223;-56
2023/07/22 03:59:49;;;;;;;5.03;2.03;;;;;;;15.70;87.31;97624.53;6223934;28;20322;-56
2023/07/22 04:02:51;;;;;;;4.57;2.50;;;;;;;15.65;87.65;97640.69;6225324;28;20239;-55
2023/07/22 04:05:57;;;;;;;3.83;2.20;;;;;;;15.63;86.36;97640.16;6225754;28;20624;-55
2023/07/22 04:09:00;;;;;;;5.80;2.23;;;;;;;15.67;84.08;97640.44;6222617;28;20229;-55
2023/07/22 04:12:03;;;;;;;2.60;2.20;;;;;;;15.74;83.96;97640.91;6217969;28;20243;-55
2023/07/22 04:15:05;;;;;;;2.37;2.17;;;;;;;15.73;84.21;97624.00;6221867;28;20230;-54
2023/07/22 04:18:08;;;;;;;1.93;1.73;;;;;;;15.72;84.67;97630.47;6218960;28;20590;-55
2023/07/22 04:21:10;;;;;;;2.53;2.00;;;;;;;15.82;75.34;97629.59;6216324;28;20352;-55
2023/07/22 04:24:12;;;;;;;3.13;1.97;;;;;;;16.12;77.73;97658.19;6220465;28;20220;-55
2023/07/22 04:27:15;;;;;;;3.97;1.87;;;;;;;16.05;73.81;97638.88;6219755;28;20227;-54
2023/07/22 04:30:20;;;;;;;2.93;1.83;;;;;;;16.52;72.13;97642.88;6220741;28;20819;-55
2023/07/22 04:33:25;;;;;;;3.13;1.57;;;;;;;16.37;75.01;97648.34;6220578;28;20236;-54
2023/07/22 04:36:27;;;;;;;1.83;1.60;;;;;;;16.36;72.67;97644.06;6220062;28;20252;-55
2023/07/22 04:39:30;;;;;;;1.93;1.70;;;;;;;16.47;70.34;97651.78;6218492;28;20244;-55
2023/07/22 04:42:32;;;;;;;1.87;1.67;;;;;;;16.47;71.74;97645.59;6221309;28;20894;-55
2023/07/22 04:45:34;;;;;;;2.63;1.80;;;;;;;16.36;72.76;97638.69;6218443;28;20271;-55
2023/07/22 04:48:36;;;;;;;3.83;1.80;;;;;;;16.45;72.53;97669.25;6219376;28;20326;-55
2023/07/22 04:51:39;;;;;;;6.10;1.73;;;;;;;16.89;68.00;97663.81;6223087;28;20745;-55
2023/07/22 04:54:41;;;;;;;3.10;1.70;;;;;;;16.97;68.11;97676.69;6214762;28;20240;-55
2023/07/22 04:57:45;;;;;;;4.67;1.70;;;;;;;16.81;69.67;97680.59;6217194;28;20729;-54
2023/07/22 05:00:51;;;;;;;2.80;1.77;;;;;;;16.76;69.38;97667.97;6221984;28;20227;-55
2023/07/22 05:03:55;;;;;;;2.13;1.70;;;;;;;16.86;69.13;97674.38;6214254;28;20236;-55
2023/07/22 05:06:57;;;;;;;4.00;2.00;;;;;;;16.81;69.79;97672.53;6217337;28;20382;-55
2023/07/22 05:09:59;;;;;;;4.13;1.80;;;;;;;16.80;70.27;97673.59;6218409;28;20634;-55
2023/07/22 05:13:01;;;;;;;3.13;1.87;;;;;;;17.18;66.55;97684.56;6218742;28;20237;-55
2023/07/22 05:16:04;;;;;;;3.07;2.10;;;;;;;17.13;67.86;97679.22;6217988;28;20321;-55
2023/07/22 05:19:08;;;;;;;1.97;1.40;;;;;;;17.35;66.02;97668.78;6217196;28;20275;-54
2023/07/22 05:22:10;;;;;;;2.17;1.70;;;;;;;17.12;68.25;97674.94;6214653;28;20231;-54
2023/07/22 05:25:12;;;;;;;3.27;2.03;;;;;;;17.04;68.30;97679.03;6219782;28;20243;-55
2023/07/22 05:28:14;;;;;;;2.13;1.80;;;;;;;17.08;69.34;97680.06;6217815;28;20238;-55
2023/07/22 05:31:17;;;;;;;4.10;2.23;;;;;;;16.98;71.21;97685.53;6213977;28;20268;-54
2023/07/22 05:34:19;;;;;;;7.50;2.30;;;;;;;16.88;68.65;97656.03;6220099;28;20374;-55
2023/07/22 05:37:23;;;;;;;2.40;1.77;;;;;;;16.90;70.84;97678.91;6217380;28;20234;-55
2023/07/22 05:40:25;;;;;;;2.70;2.20;;;;;;;16.93;70.51;97689.09;6214870;28;20242;-54
2023/07/22 05:43:27;;;;;;;4.77;1.60;;;;;;;16.97;70.58;97690.13;6220321;28;20232;-55
2023/07/22 05:46:30;;;;;;;3.83;1.93;;;;;;;16.87;69.86;97674.06;6218439;28;20601;-55
2023/07/22 05:49:33;;;;;;;3.67;2.17;;;;;;;17.13;69.05;97708.84;6218180;28;20244;-55
2023/07/22 05:52:35;;;;;;;3.03;2.27;;;;;;;17.21;68.98;97697.47;6218073;28;20618;-55
2023/07/22 05:55:38;;;;;;;5.90;1.77;;;;;;;17.17;67.58;97682.97;6219553;28;20240;-55
2023/07/22 05:58:41;;;;;;;4.03;2.00;;;;;;;17.62;65.53;97697.81;6218715;28;20255;-54
2023/07/22 06:01:44;;;;;;;2.67;2.17;;;;;;;17.48;65.64;97711.16;6217377;28;20235;-55
2023/07/22 06:04:46;;;;;;;4.40;2.30;;;;;;;17.37;67.03;97698.09;6213523;28;20239;-55
2023/07/22 06:07:49;;;;;;;2.83;1.77;;;;;;;17.15;66.31;97690.53;6220830;28;20236;-55
2023/07/22 06:10:52;;;;;;;2.33;1.60;;;;;;;17.46;65.66;97723.31;6216508;28;20228;-55
2023/07/22 06:13:54;;;;;;;3.13;2.30;;;;;;;17.31;65.71;97713.50;6216315;28;20784;-53
2023/07/22 06:16:58;;;;;;;2.30;1.60;;;;;;;17.23;65.75;97712.22;6218882;28;20247;-54
2023/07/22 06:20:01;;;;;;;2.10;1.70;;;;;;;17.14;65.71;97702.34;6217717;28;20227;-54
2023/07/22 06:23:04;;;;;;;1.60;1.50;;;;;;;17.21;66.99;97719.78;6216252;28;20317;-55
2023/07/22 06:26:06;;;;;;;1.97;1.80;;;;;;;17.23;67.81;97733.75;6216681;28;20305;-55
2023/07/22 06:29:08;;;;;;;2.83;1.57;;;;;;;17.36;66.38;97726.13;6215047;28;20248;-55
2023/07/22 06:32:11;;;;;;;2.33;1.73;;;;;;;17.47;66.07;97717.66;6218581;28;20373;-55
2023/07/22 06:35:14;;;;;;;2.83;2.00;;;;;;;17.63;66.86;97726.38;6218020;28;20604;-53
2023/07/22 06:38:17;;;;;;;2.03;1.70;;;;;;;17.77;66.99;97726.50;6214918;28;20623;-55
2023/07/22 06:41:20;;;;;;;3.10;1.70;;;;;;;17.82;67.76;97729.16;6217581;28;20286;-55
2023/07/22 06:44:22;;;;;;;2.90;1.90;;;;;;;17.93;65.00;97736.03;6216689;28;20228;-55
2023/07/22 06:47:24;;;;;;;2.73;1.97;;;;;;;18.04;64.35;97740.22;6207120;28;20240;-55
2023/07/22 06:50:27;;;;;;;2.60;1.73;;;;;;;18.04;65.63;97737.53;6216774;28;20220;-46
2023/07/22 06:53:31;;;;;;;2.40;1.80;;;;;;;18.38;60.44;97755.44;6216858;28;20262;-46
2023/07/22 06:56:33;;;;;;;2.20;1.77;;;;;;;18.20;61.86;97732.72;6211851;28;20228;-45
2023/07/22 06:59:36;;;;;;;4.47;2.17;;;;;;;18.56;59.85;97753.81;6215772;28;20232;-47
2023/07/22 07:02:38;;;;;;;2.50;1.87;;;;;;;18.62;61.32;97752.69;6215708;28;20327;-45
2023/07/22 07:05:41;;;;;;;2.17;1.90;;;;;;;18.84;60.08;97745.91;6217572;28;20311;-46
2023/07/22 07:08:43;;;;;;;1.93;1.73;;;;;;;19.01;58.04;97752.38;6215016;28;20308;-44
2023/07/22 07:11:45;;;;;;;4.03;1.70;;;;;;;19.02;56.73;97753.97;6217037;28;20708;-44
2023/07/22 07:14:51;;;;;;;2.23;1.70;;;;;;;19.03;58.85;97766.38;6215025;28;20724;-43
2023/07/22 07:17:53;;;;;;;3.00;1.60;;;;;;;19.04;59.42;97764.47;6217231;28;20791;-45
2023/07/22 07:20:55;;;;;;;3.13;2.00;;;;;;;19.26;56.88;97755.72;6218615;28;20227;-43
2023/07/22 07:23:58;;;;;;;1.60;1.50;;;;;;;18.86;60.56;97741.78;6216598;28;20227;-45
2023/07/22 07:27:00;;;;;;;2.37;1.70;;;;;;;18.84;60.33;97741.31;6218105;28;20248;-43
2023/07/22 07:30:02;;;;;;;1.67;1.57;;;;;;;19.19;57.09;97761.53;6211491;28;20244;-44
2023/07/22 07:33:05;;;;;;;2.10;1.80;;;;;;;19.42;55.24;97761.69;6215247;28;21006;-43
2023/07/22 07:36:07;;;;;;;3.00;1.70;;;;;;;19.45;54.43;97769.19;6220424;28;20605;-43
2023/07/22 07:39:10;;;;;;;2.60;1.80;;;;;;;19.44;54.49;97765.69;6216392;28;20239;-43
2023/07/22 07:42:12;;;;;;;1.60;1.47;;;;;;;19.38;56.35;97757.97;6217919;28;20784;-43
2023/07/22 07:45:15;;;;;;;2.77;1.63;;;;;;;19.65;52.56;97771.56;6210396;28;20295;-43
2023/07/22 07:48:17;;;;;;;2.00;1.50;;;;;;;19.55;57.93;97769.00;6214265;28;20244;-44
2023/07/22 07:51:22;;;;;;;2.83;1.87;;;;;;;19.48;57.33;97774.00;6215259;28;20712;-43
2023/07/22 07:54:24;;;;;;;3.00;1.50;;;;;;;19.35;57.77;97770.16;6214247;28;20259;-41
2023/07/22 07:57:26;;;;;;;2.43;1.60;;;;;;;19.30;56.23;97778.34;6210449;28;20588;-41
2023/07/22 08:00:29;;;;;;;2.13;1.60;;;;;;;19.55;50.88;97785.22;6219724;28;20238;-40
2023/07/22 08:03:33;;;;;;;2.23;1.80;;;;;;;19.65;50.54;97779.66;6208866;28;20235;-39
2023/07/22 08:06:37;;;;;;;3.07;1.60;;;;;;;19.64;51.04;97788.88;6213116;28;20860;-39
2023/07/22 08:09:39;;;;;;;1.77;1.63;;;;;;;19.76;51.80;97799.22;6214234;28;20242;-38
2023/07/22 08:12:42;;;;;;;2.17;1.40;;;;;;;19.73;52.60;97807.91;6208607;28;20235;-38
2023/07/22 08:15:44;;;;;;;1.40;1.30;;;;;;;19.85;49.35;97794.69;6213683;28;20240;-38
2023/07/22 08:18:47;;;;;;;2.77;1.53;;;;;;;19.77;49.76;97801.63;6216534;28;20235;-38
2023/07/22 08:21:49;;;;;;;2.70;1.40;;;;;;;19.68;51.50;97803.41;6215853;28;20239;-38
2023/07/22 08:24:52;;;;;;;2.73;1.87;;;;;;;19.87;49.42;97818.75;6214541;28;20274;-38
2023/07/22 08:27:55;;;;;;;2.07;1.70;;;;;;;19.70;51.91;97813.91;6211993;28;20247;-38
2023/07/22 08:31:00;;;;;;;2.43;1.60;;;;;;;19.73;50.97;97819.53;6217582;28;20952;-38
2023/07/22 08:34:03;;;;;;;3.00;1.50;;;;;;;19.75;51.61;97820.06;6217395;28;20654;-38
2023/07/22 08:37:05;;;;;;;2.03;1.40;;;;;;;19.74;53.38;97815.72;6215986;28;20244;-40
2023/07/22 08:40:08;;;;;;;2.17;1.57;;;;;;;19.79;51.72;97804.00;6207185;28;20232;-38
2023/07/22 08:43:11;;;;;;;2.10;1.40;;;;;;;19.97;52.75;97807.75;6219853;28;20251;-38
2023/07/22 08:46:15;;;;;;;1.87;1.57;;;;;;;20.25;52.01;97813.97;6219092;28;20232;-38
2023/07/22 08:49:19;;;;;;;1.50;1.40;;;;;;;20.48;50.60;97821.09;6219256;28;20608;-40
2023/07/22 08:52:22;;;;;;;1.57;1.47;;;;;;;20.83;47.73;97824.94;6219086;28;20840;-41
2023/07/22 08:55:25;;;;;;;3.00;1.70;;;;;;;20.69;47.14;97824.19;6219095;28;20243;-43
2023/07/22 08:58:28;;;;;;;3.73;1.90;;;;;;;20.68;48.93;97817.13;6214071;28;20595;-41
2023/07/22 09:01:32;;;;;;;2.47;1.63;;;;;;;20.94;48.01;97813.88;6216700;28;20239;-41
2023/07/22 09:04:35;;;;;;;1.80;1.47;;;;;;;20.92;49.78;97822.31;6220606;28;20227;-43
2023/07/22 09:07:38;;;;;;;2.20;1.40;;;;;;;21.00;51.26;97818.88;6216843;28;20236;-41
2023/07/22 09:10:42;;;;;;;2.00;1.47;;;;;;;21.30;46.82;97824.69;6218931;28;20333;-41
2023/07/22 09:13:46;;;;;;;1.63;1.53;;;;;;;21.59;44.17;97826.97;6219227;28;20236;-41
2023/07/22 09:16:48;;;;;;;1.97;1.50;;;;;;;21.48;43.88;97822.94;6216613;28;20244;-40
2023/07/22 09:19:53;;;;;;;2.87;1.70;;;;;;;21.19;43.59;97802.44;6219196;28;20282;-43
2023/07/22 09:22:56;;;;;;;1.87;1.40;;;;;;;21.38;47.91;97835.63;6218283;28;20650;-41
2023/07/22 09:26:15;;;;;;;2.23;1.57;;;;;;;21.60;47.62;97839.41;6220888;28;20289;-41
2023/07/22 09:29:18;;;;;;;1.57;1.47;;;;;;;21.75;46.35;97824.69;6209417;28;20654;-43
2023/07/22 09:32:36;;;;;;;6.30;1.53;;;;;;;21.64;48.84;97824.94;6217734;28;20267;-44
2023/07/22 09:35:45;;;;;;;1.63;1.50;;;;;;;21.59;48.26;97824.28;6215794;28;20232;-43
2023/07/22 09:39:03;;;;;;;1.63;1.53;;;;;;;21.68;44.24;97819.69;6220480;28;20224;-42
2023/07/22 09:42:06;;;;;;;3.13;1.33;;;;;;;22.02;42.12;97831.81;6218522;28;20224;-43
2023/07/22 09:45:09;;;;;;;2.20;1.20;;;;;;;22.18;45.76;97837.69;6222799;28;20220;-43
2023/07/22 09:48:11;;;;;;;2.80;1.57;;;;;;;22.10;38.50;97831.84;6219117;28;20250;-43
2023/07/22 09:51:16;;;;;;;1.40;1.00;;;;;;;22.04;41.42;97829.59;6215929;28;20207;-42
2023/07/22 09:54:19;;;;;;;1.67;1.57;;;;;;;22.00;37.33;97809.63;6213006;28;20692;-42
2023/07/22 09:57:22;;;;;;;3.00;1.47;;;;;;;21.93;40.45;97845.34;6212571;28;20236;-43
2023/07/22 10:00:29;;;;;;;1.70;1.43;;;;;;;22.03;38.49;97825.31;6217505;28;20240;-42
2023/07/22 10:03:32;;;;;;;1.70;1.50;;;;;;;21.95;38.68;97831.47;6210932;28;20232;-43
2023/07/22 10:06:36;;;;;;;1.23;1.13;;;;;;;21.97;38.89;97827.34;6217722;28;20239;-42
2023/07/22 10:09:39;;;;;;;1.90;1.30;;;;;;;22.15;35.52;97828.25;6215669;28;20259;-45
2023/07/22 10:12:43;;;;;;;1.57;1.00;;;;;;;22.12;38.97;97818.03;6209501;28;20266;-42
2023/07/22 10:15:46;;;;;;;1.87;1.30;;;;;;;22.19;40.05;97802.06;6217099;28;20236;-42
2023/07/22 10:18:49;;;;;;;1.07;0.97;;;;;;;22.09;41.14;97805.84;6206943;28;20233;-42
2023/07/22 10:21:51;;;;;;;1.60;1.30;;;;;;;22.43;35.81;97812.53;6215904;28;20528;-44
2023/07/22 10:24:55;;;;;;;1.63;1.20;;;;;;;22.51;36.04;97802.78;6214615;28;20232;-44
2023/07/22 10:27:57;;;;;;;3.53;1.40;;;;;;;22.44;36.42;97789.69;6216857;28;20624;-43
2023/07/22 10:31:00;;;;;;;2.27;1.17;;;;;;;22.75;36.94;97797.72;6213920;28;20259;-43
2023/07/22 10:34:03;;;;;;;1.93;1.33;;;;;;;22.69;36.82;97788.13;6215538;28;20269;-42
2023/07/22 10:37:10;;;;;;;1.60;1.30;;;;;;;22.67;36.81;97785.75;6216784;28;20242;-46
2023/07/22 10:40:18;;;;;;;1.30;1.20;;;;;;;22.78;35.65;97788.94;6211403;28;20247;-44
2023/07/22 10:43:36;;;;;;;2.30;1.30;;;;;;;22.92;34.48;97776.03;6212534;28;20251;-45
2023/07/22 10:46:40;;;;;;;2.13;1.10;;;;;;;22.76;34.79;97784.94;6207434;28;20244;-43
2023/07/22 10:49:48;;;;;;;2.20;1.10;;;;;;;22.71;40.56;97777.78;6217755;28;20597;-43
2023/07/22 10:52:50;;;;;;;1.40;1.30;;;;;;;22.75;39.42;97773.28;6218104;28;20271;-45
2023/07/22 10:56:02;;;;;;;1.73;1.23;;;;;;;22.82;36.58;97773.59;6215681;28;20255;-44
2023/07/22 10:59:05;;;;;;;2.03;1.30;;;;;;;22.92;35.13;97761.66;6211974;28;20707;-44
2023/07/22 11:02:26;;;;;;;1.10;1.00;;;;;;;23.02;35.57;97765.97;6211995;28;20947;-43
2023/07/22 11:05:48;;;;;;;1.85;1.75;;;;;;;23.27;33.37;97759.69;6209871;28;20227;-42
2023/07/22 11:08:51;;;;;;;1.38;1.10;;;;;;;23.21;35.03;97769.16;6216422;28;20227;-42
2023/07/22 11:12:01;;;;;;;1.50;1.30;;;;;;;23.30;33.45;97775.38;6212188;28;20640;-42
2023/07/22 11:15:05;;;;;;;1.35;1.10;;;;;;;23.49;32.05;97776.91;6215101;28;20223;-43
2023/07/22 11:18:08;;;;;;;2.00;1.65;;;;;;;23.47;32.30;97768.28;6215421;28;20378;-42
2023/07/22 11:21:12;;;;;;;1.70;1.60;;;;;;;23.45;33.46;97763.19;6208712;28;20578;-42
2023/07/22 11:24:16;;;;;;;1.23;1.10;;;;;;;23.51;33.19;97764.59;6213575;28;20377;-43
2023/07/22 11:27:19;;;;;;;1.50;1.38;;;;;;;23.75;32.35;97758.66;6216303;28;20231;-45
2023/07/22 11:30:24;;;;;;;1.83;1.15;;;;;;;23.81;31.87;97762.78;6211890;28;21250;-41
2023/07/22 11:33:38;;;;;;;1.80;1.05;;;;;;;23.97;28.81;97765.75;6214486;28;20227;-41
2023/07/22 11:36:41;;;;;;;1.45;1.00;;;;;;;23.80;30.51;97755.75;6211973;28;20256;-42
2023/07/22 11:39:44;;;;;;;1.73;1.40;;;;;;;23.66;31.72;97761.38;6212398;28;20578;-43
2023/07/22 11:42:47;;;;;;;4.63;1.35;;;;;;;23.85;30.13;97755.56;6214164;28;20659;-41
2023/07/22 11:45:49;;;;;;;1.30;1.20;;;;;;;23.90;29.66;97757.31;6212873;28;20244;-43
2023/07/22 11:48:53;;;;;;;4.43;1.30;;;;;;;23.97;28.84;97743.97;6214440;28;20709;-41
2023/07/22 11:52:02;;;;;;;1.10;1.00;;;;;;;24.30;28.90;97743.31;6207573;28;20225;-41
2023/07/22 11:55:04;;;;;;;1.80;1.20;;;;;;;23.93;28.82;97729.44;6209611;28;20232;-41
2023/07/22 11:58:07;;;;;;;1.20;1.10;;;;;;;23.86;28.30;97726.44;6209328;28;20275;-41
2023/07/22 12:01:11;;;;;;;1.30;1.20;;;;;;;23.65;31.64;97723.66;6214947;28;20313;-41
2023/07/22 12:04:14;;;;;;;1.00;1.00;;;;;;;23.55;32.64;97729.41;6215848;28;20226;-41
2023/07/22 12:07:29;;;;;;;2.58;1.17;;;;;;;23.48;32.86;97734.53;6210367;28;20225;-40
2023/07/22 12:10:31;;;;;;;1.27;1.10;;;;;;;23.44;35.74;97723.50;6210916;28;20228;-40
2023/07/22 12:13:37;;;;;;;1.17;1.08;;;;;;;23.32;31.73;97713.31;6217970;28;20378;-42
2023/07/22 12:16:41;;;;;;;1.50;1.33;;;;;;;23.47;34.30;97713.91;6216566;28;20236;-42
2023/07/22 12:19:53;;;;;;;1.40;1.20;;;;;;;24.12;27.04;97715.41;6222257;28;20770;-42
2023/07/22 12:22:59;;;;;;;1.70;1.60;;;;;;;24.06;25.06;97719.44;6216674;28;20464;-43
2023/07/22 12:26:01;;;;;;;1.52;1.17;;;;;;;23.91;27.00;97727.03;6218566;28;20603;-42
2023/07/22 12:29:03;;;;;;;1.48;1.30;;;;;;;24.01;28.17;97717.72;6213179;28;20313;-42
2023/07/22 12:32:06;;;;;;;1.95;1.50;;;;;;;24.15;31.85;97723.72;6213285;28;20677;-44
2023/07/22 12:35:09;;;;;;;2.63;1.58;;;;;;;24.40;30.62;97726.63;6220823;28;20236;-43
2023/07/22 12:41:32;;;;;;;1.38;1.20;;;;;;;24.22;26.96;97715.00;6224636;28;20224;-59
2023/07/22 12:44:34;;;;;;;1.30;1.17;;;;;;;24.24;27.70;97733.75;6230950;28;20319;-59
2023/07/22 12:47:37;;;;;;;1.77;1.27;;;;;;;24.01;28.19;97722.34;6230983;28;20330;-59
2023/07/22 12:50:39;;;;;;;1.58;1.27;;;;;;;23.87;29.92;97715.22;6227061;28;20701;-59
2023/07/22 12:53:43;;;;;;;5.50;1.70;;;;;;;23.91;31.36;97708.00;6232862;28;20309;-59
2023/07/22 12:56:45;;;;;;;1.48;1.23;;;;;;;23.89;34.64;97701.28;6229608;28;20263;-59
2023/07/22 12:59:47;;;;;;;1.45;1.30;;;;;;;23.92;36.06;97701.41;6231433;28;20220;-57
2023/07/22 13:02:50;;;;;;;1.80;1.70;;;;;;;23.84;37.24;97682.41;6231203;28;20538;-58
2023/07/22 13:05:52;;;;;;;4.28;1.90;;;;;;;23.87;32.34;97692.66;6228819;28;20239;-58
2023/07/22 13:08:55;;;;;;;3.53;1.80;;;;;;;23.88;35.00;97696.97;6227374;28;20787;-58
2023/07/22 13:11:57;;;;;;;2.42;1.90;;;;;;;23.82;39.18;97707.22;6228690;28;20318;-58
2023/07/22 13:15:00;;;;;;;2.40;1.70;;;;;;;23.75;40.87;97711.59;6230927;28;20236;-58
2023/07/22 13:18:02;;;;;;;2.58;1.77;;;;;;;23.69;38.38;97697.38;6229948;28;20239;-58
2023/07/22 13:21:05;;;;;;;2.17;1.80;;;;;;;23.85;36.38;97690.25;6228932;28;20212;-58
2023/07/22 13:24:07;;;;;;;2.33;1.80;;;;;;;24.10;33.21;97677.63;6229381;28;20214;-58
2023/07/22 13:27:10;;;;;;;2.53;2.08;;;;;;;24.51;33.76;97684.25;6222386;28;20204;-59
2023/07/22 13:30:13;;;;;;;2.33;2.13;;;;;;;24.24;33.44;97616.69;6221691;28;20293;-59
2023/07/22 13:33:15;;;;;;;3.75;2.42;;;;;;;24.76;33.46;97671.53;6220426;28;20305;-60
2023/07/22 13:36:18;;;;;;;2.45;2.20;;;;;;;24.85;32.19;97672.25;6232113;28;20220;-59
2023/07/22 13:39:20;;;;;;;2.80;2.50;;;;;;;24.85;31.98;97671.47;6226851;28;20235;-58
2023/07/22 13:42:22;;;;;;;3.13;2.50;;;;;;;24.71;33.01;97664.38;6225118;28;20311;-59
2023/07/22 13:45:26;;;;;;;2.55;2.13;;;;;;;24.54;36.30;97669.97;6226488;28;20285;-59
2023/07/22 13:48:28;;;;;;;2.38;2.13;;;;;;;24.48;39.01;97679.47;6196579;28;20255;-59
2023/07/22 13:51:31;;;;;;;3.15;2.55;;;;;;;24.40;37.88;97672.16;6228726;28;20223;-61
2023/07/22 13:54:33;;;;;;;3.50;2.80;;;;;;;24.32;32.30;97675.72;6229300;28;20316;-59
2023/07/22 13:57:35;;;;;;;2.70;2.28;;;;;;;24.23;34.59;97659.44;6213547;28;20234;-60
2023/07/22 14:00:39;;;;;;;4.00;2.25;;;;;;;24.37;36.63;97667.38;6226808;28;20239;-59
2023/07/22 14:03:41;;;;;;;2.63;2.30;;;;;;;24.36;37.79;97657.63;6225484;28;20236;-60
2023/07/22 14:06:43;;;;;;;4.57;2.80;;;;;;;24.32;35.12;97665.63;6211782;28;20373;-60
2023/07/22 14:09:46;;;;;;;2.92;2.50;;;;;;;24.32;35.07;97657.44;6221100;28;20239;-61
2023/07/22 14:12:48;;;;;;;3.08;2.50;;;;;;;24.33;35.57;97653.59;6226640;28;20357;-59
2023/07/22 14:15:51;;;;;;;2.60;2.40;;;;;;;24.26;39.52;97645.16;6229804;28;20235;-59
2023/07/22 14:18:55;;;;;;;2.60;2.28;;;;;;;24.10;37.72;97636.81;6225311;28;20248;-60
2023/07/22 14:21:57;;;;;;;6.20;2.60;;;;;;;24.02;40.59;97634.94;6216197;28;20239;-60
2023/07/22 14:25:02;;;;;;;3.03;2.50;;;;;;;23.90;42.81;97634.88;6224779;28;20229;-59
2023/07/22 14:28:05;;;;;;;2.80;2.30;;;;;;;23.86;44.66;97642.88;6223745;28;20705;-59